sensor_id;sensor_type;location;lat;lon;timestamp;temperature;humidity
18141;DHT22;9196;49.194;12.526;2023-10-31T00:00:21;13.00;99.90
18141;DHT22;9196;49.194;12.526;2023-10-31T00:02:48;13.00;99.90
18141;DHT22;9196;49.194;12.526;2023-10-31T00:05:15;12.80;99.90
18141;DHT22;9196;49.194;12.526;2023-10-31T00:07:42;12.70;99.90
18141;DHT22;9196;49.194;12.526;2023-10-31T00:10:10;12.70;99.90
18141;DHT22;9196;49.194;12.526;2023-10-31T00:12:37;12.70;99.90
18141;DHT22;9196;49.194;12.526;2023-10-31T00:15:05;12.70;99.90
18141;DHT22;9196;49.194;12.526;2023-10-31T00:17:32;12.70;99.90
18141;DHT22;9196;49.194;12.526;2023-10-31T00:19:59;12.70;99.90
18141;DHT22;9196;49.194;12.526;2023-10-31T00:22:26;12.60;99.90
18141;DHT22;9196;49.194;12.526;2023-10-31T00:24:53;12.60;99.90
18141;DHT22;9196;49.194;12.526;2023-10-31T00:27:21;12.60;99.90
18141;DHT22;9196;49.194;12.526;2023-10-31T00:29:48;12.70;99.90
18141;DHT22;9196;49.194;12.526;2023-10-31T00:32:14;12.70;99.90
18141;DHT22;9196;49.194;12.526;2023-10-31T00:34:41;12.70;99.90
18141;DHT22;9196;49.194;12.526;2023-10-31T00:37:08;12.60;99.90
18141;DHT22;9196;49.194;12.526;2023-10-31T00:39:35;12.60;99.90
18141;DHT22;9196;49.194;12.526;2023-10-31T00:42:02;12.50;99.90
18141;DHT22;9196;49.194;12.526;2023-10-31T00:44:30;12.40;99.90
18141;DHT22;9196;49.194;12.526;2023-10-31T00:46:57;12.50;99.90
18141;DHT22;9196;49.194;12.526;2023-10-31T00:49:23;12.50;99.90
18141;DHT22;9196;49.194;12.526;2023-10-31T00:51:50;12.40;99.90
18141;DHT22;9196;49.194;12.526;2023-10-31T00:54:17;12.40;99.90
18141;DHT22;9196;49.194;12.526;2023-10-31T00:56:44;12.40;99.90
18141;DHT22;9196;49.194;12.526;2023-10-31T00:59:11;12.40;99.90
18141;DHT22;9196;49.194;12.526;2023-10-31T01:01:40;12.40;99.90
18141;DHT22;9196;49.194;12.526;2023-10-31T01:04:07;12.40;99.90
18141;DHT22;9196;49.194;12.526;2023-10-31T01:06:33;12.40;99.90
18141;DHT22;9196;49.194;12.526;2023-10-31T01:09:00;12.40;99.90
18141;DHT22;9196;49.194;12.526;2023-10-31T01:11:27;12.30;99.90
18141;DHT22;9196;49.194;12.526;2023-10-31T01:13:54;12.30;99.90
18141;DHT22;9196;49.194;12.526;2023-10-31T01:16:21;12.30;99.90
18141;DHT22;9196;49.194;12.526;2023-10-31T01:18:49;12.30;99.90
18141;DHT22;9196;49.194;12.526;2023-10-31T01:21:16;12.30;99.90
18141;DHT22;9196;49.194;12.526;2023-10-31T01:23:42;12.20;99.90
18141;DHT22;9196;49.194;12.526;2023-10-31T01:26:09;12.20;99.90
18141;DHT22;9196;49.194;12.526;2023-10-31T01:28:36;12.20;99.90
18141;DHT22;9196;49.194;12.526;2023-10-31T01:31:03;12.20;99.90
18141;DHT22;9196;49.194;12.526;2023-10-31T01:33:30;12.20;99.90
18141;DHT22;9196;49.194;12.526;2023-10-31T01:35:58;12.10;99.90
18141;DHT22;9196;49.194;12.526;2023-10-31T01:38:25;12.20;99.90
18141;DHT22;9196;49.194;12.526;2023-10-31T01:40:52;12.10;99.90
18141;DHT22;9196;49.194;12.526;2023-10-31T01:43:32;12.10;99.90
18141;DHT22;9196;49.194;12.526;2023-10-31T01:45:59;12.10;99.90
18141;DHT22;9196;49.194;12.526;2023-10-31T01:48:29;12.20;99.90
18141;DHT22;9196;49.194;12.526;2023-10-31T01:50:58;12.20;99.90
18141;DHT22;9196;49.194;12.526;2023-10-31T01:53:26;12.20;99.90
18141;DHT22;9196;49.194;12.526;2023-10-31T01:55:55;12.20;99.90
18141;DHT22;9196;49.194;12.526;2023-10-31T01:58:25;12.20;99.90
18141;DHT22;9196;49.194;12.526;2023-10-31T02:00:54;12.10;99.90
18141;DHT22;9196;49.194;12.526;2023-10-31T02:03:21;12.10;99.90
18141;DHT22;9196;49.194;12.526;2023-10-31T02:05:50;12.10;99.90
18141;DHT22;9196;49.194;12.526;2023-10-31T02:08:19;12.10;99.90
18141;DHT22;9196;49.194;12.526;2023-10-31T02:10:46;12.10;99.90
18141;DHT22;9196;49.194;12.526;2023-10-31T02:13:13;12.10;99.90
18141;DHT22;9196;49.194;12.526;2023-10-31T02:15:40;12.10;99.90
18141;DHT22;9196;49.194;12.526;2023-10-31T02:18:08;12.00;99.90
18141;DHT22;9196;49.194;12.526;2023-10-31T02:20:35;12.00;99.90
18141;DHT22;9196;49.194;12.526;2023-10-31T02:23:04;12.00;99.90
18141;DHT22;9196;49.194;12.526;2023-10-31T02:25:31;12.00;99.90
18141;DHT22;9196;49.194;12.526;2023-10-31T02:27:58;12.00;99.90
18141;DHT22;9196;49.194;12.526;2023-10-31T02:30:26;12.00;99.90
18141;DHT22;9196;49.194;12.526;2023-10-31T02:32:53;12.00;99.90
18141;DHT22;9196;49.194;12.526;2023-10-31T02:35:20;12.00;99.90
18141;DHT22;9196;49.194;12.526;2023-10-31T02:37:47;12.00;99.90
18141;DHT22;9196;49.194;12.526;2023-10-31T02:40:16;11.90;99.90
18141;DHT22;9196;49.194;12.526;2023-10-31T02:42:42;12.00;99.90
18141;DHT22;9196;49.194;12.526;2023-10-31T02:45:10;11.90;99.90
18141;DHT22;9196;49.194;12.526;2023-10-31T02:47:37;11.90;99.90
18141;DHT22;9196;49.194;12.526;2023-10-31T02:50:04;11.90;99.90
18141;DHT22;9196;49.194;12.526;2023-10-31T02:52:31;11.90;99.90
18141;DHT22;9196;49.194;12.526;2023-10-31T02:54:58;11.90;99.90
18141;DHT22;9196;49.194;12.526;2023-10-31T02:57:26;11.90;99.90
18141;DHT22;9196;49.194;12.526;2023-10-31T02:59:53;11.80;99.90
18141;DHT22;9196;49.194;12.526;2023-10-31T03:02:20;11.80;99.90
18141;DHT22;9196;49.194;12.526;2023-10-31T03:04:47;11.80;99.90
18141;DHT22;9196;49.194;12.526;2023-10-31T03:07:14;11.80;99.90
18141;DHT22;9196;49.194;12.526;2023-10-31T03:09:41;11.80;99.90
18141;DHT22;9196;49.194;12.526;2023-10-31T03:12:08;11.80;99.90
18141;DHT22;9196;49.194;12.526;2023-10-31T03:14:36;11.80;99.90
18141;DHT22;9196;49.194;12.526;2023-10-31T03:17:03;11.70;99.90
18141;DHT22;9196;49.194;12.526;2023-10-31T03:19:30;11.70;99.90
18141;DHT22;9196;49.194;12.526;2023-10-31T03:21:57;11.80;99.90
18141;DHT22;9196;49.194;12.526;2023-10-31T03:24:24;11.80;99.90
18141;DHT22;9196;49.194;12.526;2023-10-31T03:26:51;11.70;99.90
18141;DHT22;9196;49.194;12.526;2023-10-31T03:29:17;11.80;99.90
18141;DHT22;9196;49.194;12.526;2023-10-31T03:31:46;11.80;99.90
18141;DHT22;9196;49.194;12.526;2023-10-31T03:34:13;11.80;99.90
18141;DHT22;9196;49.194;12.526;2023-10-31T03:36:39;11.90;99.90
18141;DHT22;9196;49.194;12.526;2023-10-31T03:39:06;11.80;99.90
18141;DHT22;9196;49.194;12.526;2023-10-31T03:41:33;11.80;99.90
18141;DHT22;9196;49.194;12.526;2023-10-31T03:44:00;11.70;99.90
18141;DHT22;9196;49.194;12.526;2023-10-31T03:46:26;11.80;99.90
18141;DHT22;9196;49.194;12.526;2023-10-31T03:48:55;11.70;99.90
18141;DHT22;9196;49.194;12.526;2023-10-31T03:51:20;11.80;99.90
18141;DHT22;9196;49.194;12.526;2023-10-31T03:53:47;11.80;99.90
18141;DHT22;9196;49.194;12.526;2023-10-31T03:56:14;11.80;99.90
18141;DHT22;9196;49.194;12.526;2023-10-31T03:58:42;11.80;99.90
18141;DHT22;9196;49.194;12.526;2023-10-31T04:01:08;11.70;99.90
18141;DHT22;9196;49.194;12.526;2023-10-31T04:03:44;11.70;99.90
18141;DHT22;9196;49.194;12.526;2023-10-31T04:06:13;11.70;99.90
18141;DHT22;9196;49.194;12.526;2023-10-31T04:08:40;11.70;99.90
18141;DHT22;9196;49.194;12.526;2023-10-31T04:11:06;11.80;99.90
18141;DHT22;9196;49.194;12.526;2023-10-31T04:13:33;11.60;99.90
18141;DHT22;9196;49.194;12.526;2023-10-31T04:16:00;11.70;99.90
18141;DHT22;9196;49.194;12.526;2023-10-31T04:18:27;11.70;99.90
18141;DHT22;9196;49.194;12.526;2023-10-31T04:20:54;11.60;99.90
18141;DHT22;9196;49.194;12.526;2023-10-31T04:23:22;11.60;99.90
18141;DHT22;9196;49.194;12.526;2023-10-31T04:25:49;11.60;99.90
18141;DHT22;9196;49.194;12.526;2023-10-31T04:28:17;11.60;99.90
18141;DHT22;9196;49.194;12.526;2023-10-31T04:30:44;11.50;99.90
18141;DHT22;9196;49.194;12.526;2023-10-31T04:33:11;11.70;99.90
18141;DHT22;9196;49.194;12.526;2023-10-31T04:35:38;11.80;99.90
18141;DHT22;9196;49.194;12.526;2023-10-31T04:38:05;11.70;99.90
18141;DHT22;9196;49.194;12.526;2023-10-31T04:40:33;11.80;99.90
18141;DHT22;9196;49.194;12.526;2023-10-31T04:43:01;11.80;99.90
18141;DHT22;9196;49.194;12.526;2023-10-31T04:45:28;11.70;99.90
18141;DHT22;9196;49.194;12.526;2023-10-31T04:47:55;11.70;99.90
18141;DHT22;9196;49.194;12.526;2023-10-31T04:50:22;11.70;99.90
18141;DHT22;9196;49.194;12.526;2023-10-31T04:52:48;11.70;99.90
18141;DHT22;9196;49.194;12.526;2023-10-31T04:55:15;11.70;99.90
18141;DHT22;9196;49.194;12.526;2023-10-31T04:57:44;11.60;99.90
18141;DHT22;9196;49.194;12.526;2023-10-31T05:00:11;11.60;99.90
18141;DHT22;9196;49.194;12.526;2023-10-31T05:02:38;11.50;99.90
18141;DHT22;9196;49.194;12.526;2023-10-31T05:05:05;11.50;99.90
18141;DHT22;9196;49.194;12.526;2023-10-31T05:07:32;11.40;99.90
18141;DHT22;9196;49.194;12.526;2023-10-31T05:09:59;11.30;99.90
18141;DHT22;9196;49.194;12.526;2023-10-31T05:12:26;11.20;99.90
18141;DHT22;9196;49.194;12.526;2023-10-31T05:14:54;11.20;99.90
18141;DHT22;9196;49.194;12.526;2023-10-31T05:17:21;11.00;99.90
18141;DHT22;9196;49.194;12.526;2023-10-31T05:19:48;11.00;99.90
18141;DHT22;9196;49.194;12.526;2023-10-31T05:22:15;11.00;99.90
18141;DHT22;9196;49.194;12.526;2023-10-31T05:24:42;11.00;99.90
18141;DHT22;9196;49.194;12.526;2023-10-31T05:27:09;10.90;99.90
18141;DHT22;9196;49.194;12.526;2023-10-31T05:29:38;10.90;99.90
18141;DHT22;9196;49.194;12.526;2023-10-31T05:32:06;10.90;99.90
18141;DHT22;9196;49.194;12.526;2023-10-31T05:34:33;10.80;99.90
18141;DHT22;9196;49.194;12.526;2023-10-31T05:37:00;10.80;99.90
18141;DHT22;9196;49.194;12.526;2023-10-31T05:39:27;10.80;99.90
18141;DHT22;9196;49.194;12.526;2023-10-31T05:41:54;10.80;99.90
18141;DHT22;9196;49.194;12.526;2023-10-31T05:44:20;10.80;99.90
18141;DHT22;9196;49.194;12.526;2023-10-31T05:46:47;10.70;99.90
18141;DHT22;9196;49.194;12.526;2023-10-31T05:49:16;10.70;99.90
18141;DHT22;9196;49.194;12.526;2023-10-31T05:51:43;10.70;99.90
18141;DHT22;9196;49.194;12.526;2023-10-31T05:54:09;10.70;99.90
18141;DHT22;9196;49.194;12.526;2023-10-31T05:56:36;10.70;99.90
18141;DHT22;9196;49.194;12.526;2023-10-31T05:59:03;10.70;99.90
18141;DHT22;9196;49.194;12.526;2023-10-31T06:01:30;10.70;99.90
18141;DHT22;9196;49.194;12.526;2023-10-31T06:03:57;10.70;99.90
18141;DHT22;9196;49.194;12.526;2023-10-31T06:06:25;10.70;99.90
18141;DHT22;9196;49.194;12.526;2023-10-31T06:08:51;10.70;99.90
18141;DHT22;9196;49.194;12.526;2023-10-31T06:11:18;10.70;99.90
18141;DHT22;9196;49.194;12.526;2023-10-31T06:13:45;10.70;99.90
18141;DHT22;9196;49.194;12.526;2023-10-31T06:16:13;10.60;99.90
18141;DHT22;9196;49.194;12.526;2023-10-31T06:18:40;10.70;99.90
18141;DHT22;9196;49.194;12.526;2023-10-31T06:21:07;10.70;99.90
18141;DHT22;9196;49.194;12.526;2023-10-31T06:23:37;10.70;99.90
18141;DHT22;9196;49.194;12.526;2023-10-31T06:26:03;10.70;99.90
18141;DHT22;9196;49.194;12.526;2023-10-31T06:28:30;10.70;99.90
18141;DHT22;9196;49.194;12.526;2023-10-31T06:31:00;10.80;99.90
18141;DHT22;9196;49.194;12.526;2023-10-31T06:33:27;10.70;99.90
18141;DHT22;9196;49.194;12.526;2023-10-31T06:35:54;10.70;99.90
18141;DHT22;9196;49.194;12.526;2023-10-31T06:38:20;10.80;99.90
18141;DHT22;9196;49.194;12.526;2023-10-31T06:40:49;10.80;99.90
18141;DHT22;9196;49.194;12.526;2023-10-31T06:43:15;10.80;99.90
18141;DHT22;9196;49.194;12.526;2023-10-31T06:45:42;10.70;99.90
18141;DHT22;9196;49.194;12.526;2023-10-31T06:48:09;10.60;99.90
18141;DHT22;9196;49.194;12.526;2023-10-31T06:50:36;10.60;99.90
18141;DHT22;9196;49.194;12.526;2023-10-31T06:53:03;10.60;99.90
18141;DHT22;9196;49.194;12.526;2023-10-31T06:55:30;10.50;99.90
18141;DHT22;9196;49.194;12.526;2023-10-31T06:57:58;10.60;99.90
18141;DHT22;9196;49.194;12.526;2023-10-31T07:00:25;10.60;99.90
18141;DHT22;9196;49.194;12.526;2023-10-31T07:02:52;10.60;99.90
18141;DHT22;9196;49.194;12.526;2023-10-31T07:05:18;10.50;99.90
18141;DHT22;9196;49.194;12.526;2023-10-31T07:07:46;10.50;99.90
18141;DHT22;9196;49.194;12.526;2023-10-31T07:10:13;10.50;99.90
18141;DHT22;9196;49.194;12.526;2023-10-31T07:12:40;10.50;99.90
18141;DHT22;9196;49.194;12.526;2023-10-31T07:15:09;10.50;99.90
18141;DHT22;9196;49.194;12.526;2023-10-31T07:17:36;10.60;99.90
18141;DHT22;9196;49.194;12.526;2023-10-31T07:20:04;10.60;99.90
18141;DHT22;9196;49.194;12.526;2023-10-31T07:22:31;10.70;99.90
18141;DHT22;9196;49.194;12.526;2023-10-31T07:24:59;10.70;99.90
18141;DHT22;9196;49.194;12.526;2023-10-31T07:27:28;10.70;99.90
18141;DHT22;9196;49.194;12.526;2023-10-31T07:29:55;10.70;99.90
18141;DHT22;9196;49.194;12.526;2023-10-31T07:32:23;10.60;99.90
18141;DHT22;9196;49.194;12.526;2023-10-31T07:34:51;10.60;99.90
18141;DHT22;9196;49.194;12.526;2023-10-31T07:37:18;10.70;99.90
18141;DHT22;9196;49.194;12.526;2023-10-31T07:39:44;10.70;99.90
18141;DHT22;9196;49.194;12.526;2023-10-31T07:42:11;10.70;99.90
18141;DHT22;9196;49.194;12.526;2023-10-31T07:44:38;10.70;99.90
18141;DHT22;9196;49.194;12.526;2023-10-31T07:47:05;10.80;99.90
18141;DHT22;9196;49.194;12.526;2023-10-31T07:49:33;10.90;99.90
18141;DHT22;9196;49.194;12.526;2023-10-31T07:52:00;10.90;99.90
18141;DHT22;9196;49.194;12.526;2023-10-31T07:54:27;10.80;99.90
18141;DHT22;9196;49.194;12.526;2023-10-31T07:56:54;10.80;99.90
18141;DHT22;9196;49.194;12.526;2023-10-31T07:59:21;10.80;99.90
18141;DHT22;9196;49.194;12.526;2023-10-31T08:01:47;10.70;99.90
18141;DHT22;9196;49.194;12.526;2023-10-31T08:04:16;10.80;99.90
18141;DHT22;9196;49.194;12.526;2023-10-31T08:06:44;10.80;99.90
18141;DHT22;9196;49.194;12.526;2023-10-31T08:09:11;10.80;99.90
18141;DHT22;9196;49.194;12.526;2023-10-31T08:11:38;10.80;99.90
18141;DHT22;9196;49.194;12.526;2023-10-31T08:14:05;10.80;99.90
18141;DHT22;9196;49.194;12.526;2023-10-31T08:16:31;10.80;99.90
18141;DHT22;9196;49.194;12.526;2023-10-31T08:18:58;10.70;99.90
18141;DHT22;9196;49.194;12.526;2023-10-31T08:21:25;10.70;99.90
18141;DHT22;9196;49.194;12.526;2023-10-31T08:23:55;10.70;99.90
18141;DHT22;9196;49.194;12.526;2023-10-31T08:26:22;10.70;99.90
18141;DHT22;9196;49.194;12.526;2023-10-31T08:28:48;10.80;99.90
18141;DHT22;9196;49.194;12.526;2023-10-31T08:31:17;10.90;99.90
18141;DHT22;9196;49.194;12.526;2023-10-31T08:33:44;10.80;99.90
18141;DHT22;9196;49.194;12.526;2023-10-31T08:36:10;10.80;99.90
18141;DHT22;9196;49.194;12.526;2023-10-31T08:38:37;10.90;99.90
18141;DHT22;9196;49.194;12.526;2023-10-31T08:41:05;10.90;99.90
18141;DHT22;9196;49.194;12.526;2023-10-31T08:43:32;10.90;99.90
18141;DHT22;9196;49.194;12.526;2023-10-31T08:45:59;10.90;99.90
18141;DHT22;9196;49.194;12.526;2023-10-31T08:48:26;11.00;99.90
18141;DHT22;9196;49.194;12.526;2023-10-31T08:50:53;11.00;99.90
18141;DHT22;9196;49.194;12.526;2023-10-31T08:53:20;10.90;99.90
18141;DHT22;9196;49.194;12.526;2023-10-31T08:55:47;10.90;99.90
18141;DHT22;9196;49.194;12.526;2023-10-31T08:58:15;10.90;99.90
18141;DHT22;9196;49.194;12.526;2023-10-31T09:00:43;10.90;99.90
18141;DHT22;9196;49.194;12.526;2023-10-31T09:03:10;11.00;99.90
18141;DHT22;9196;49.194;12.526;2023-10-31T09:05:37;11.00;99.90
18141;DHT22;9196;49.194;12.526;2023-10-31T09:08:04;11.00;99.90
18141;DHT22;9196;49.194;12.526;2023-10-31T09:10:32;11.00;99.90
18141;DHT22;9196;49.194;12.526;2023-10-31T09:12:59;11.00;99.90
18141;DHT22;9196;49.194;12.526;2023-10-31T09:15:27;11.00;99.90
18141;DHT22;9196;49.194;12.526;2023-10-31T09:17:53;11.00;99.90
18141;DHT22;9196;49.194;12.526;2023-10-31T09:20:20;11.00;99.90
18141;DHT22;9196;49.194;12.526;2023-10-31T09:22:47;11.00;99.90
18141;DHT22;9196;49.194;12.526;2023-10-31T09:25:14;11.00;99.90
18141;DHT22;9196;49.194;12.526;2023-10-31T09:27:41;11.00;99.90
18141;DHT22;9196;49.194;12.526;2023-10-31T09:30:08;11.00;99.90
18141;DHT22;9196;49.194;12.526;2023-10-31T09:32:36;11.10;99.90
18141;DHT22;9196;49.194;12.526;2023-10-31T09:35:04;11.10;99.90
18141;DHT22;9196;49.194;12.526;2023-10-31T09:37:31;11.30;99.90
18141;DHT22;9196;49.194;12.526;2023-10-31T09:39:58;11.20;99.90
18141;DHT22;9196;49.194;12.526;2023-10-31T09:42:24;11.20;99.90
18141;DHT22;9196;49.194;12.526;2023-10-31T09:44:52;11.20;99.90
18141;DHT22;9196;49.194;12.526;2023-10-31T09:47:20;11.20;99.90
18141;DHT22;9196;49.194;12.526;2023-10-31T09:49:49;11.10;99.90
18141;DHT22;9196;49.194;12.526;2023-10-31T09:52:16;11.10;99.90
18141;DHT22;9196;49.194;12.526;2023-10-31T09:54:46;11.00;99.90
18141;DHT22;9196;49.194;12.526;2023-10-31T09:57:14;11.10;99.90
18141;DHT22;9196;49.194;12.526;2023-10-31T09:59:42;11.10;99.90
18141;DHT22;9196;49.194;12.526;2023-10-31T10:02:09;11.10;99.90
18141;DHT22;9196;49.194;12.526;2023-10-31T10:04:36;11.10;99.90
18141;DHT22;9196;49.194;12.526;2023-10-31T10:07:05;11.10;99.90
18141;DHT22;9196;49.194;12.526;2023-10-31T10:09:32;11.10;99.90
18141;DHT22;9196;49.194;12.526;2023-10-31T10:11:59;11.20;99.90
18141;DHT22;9196;49.194;12.526;2023-10-31T10:14:26;11.20;99.90
18141;DHT22;9196;49.194;12.526;2023-10-31T10:16:54;11.10;99.90
18141;DHT22;9196;49.194;12.526;2023-10-31T10:19:23;11.10;99.90
18141;DHT22;9196;49.194;12.526;2023-10-31T10:21:52;11.20;99.90
18141;DHT22;9196;49.194;12.526;2023-10-31T10:24:21;11.20;99.90
18141;DHT22;9196;49.194;12.526;2023-10-31T10:26:50;11.20;99.90
18141;DHT22;9196;49.194;12.526;2023-10-31T10:29:17;11.20;99.90
18141;DHT22;9196;49.194;12.526;2023-10-31T10:31:44;11.30;99.90
18141;DHT22;9196;49.194;12.526;2023-10-31T10:34:13;11.20;99.90
18141;DHT22;9196;49.194;12.526;2023-10-31T10:36:40;11.20;99.90
18141;DHT22;9196;49.194;12.526;2023-10-31T10:39:10;11.10;99.90
18141;DHT22;9196;49.194;12.526;2023-10-31T10:41:41;11.10;99.90
18141;DHT22;9196;49.194;12.526;2023-10-31T10:44:10;11.10;99.90
18141;DHT22;9196;49.194;12.526;2023-10-31T10:46:40;11.10;99.90
18141;DHT22;9196;49.194;12.526;2023-10-31T10:49:07;11.10;99.90
18141;DHT22;9196;49.194;12.526;2023-10-31T10:51:43;11.20;99.90
18141;DHT22;9196;49.194;12.526;2023-10-31T10:54:17;11.20;99.90
18141;DHT22;9196;49.194;12.526;2023-10-31T10:56:53;11.20;99.90
18141;DHT22;9196;49.194;12.526;2023-10-31T10:59:27;11.20;99.90
18141;DHT22;9196;49.194;12.526;2023-10-31T11:01:58;11.20;99.90
18141;DHT22;9196;49.194;12.526;2023-10-31T11:04:27;11.20;99.90
18141;DHT22;9196;49.194;12.526;2023-10-31T11:06:54;11.20;99.90
18141;DHT22;9196;49.194;12.526;2023-10-31T11:09:23;11.20;99.90
18141;DHT22;9196;49.194;12.526;2023-10-31T11:11:52;11.20;99.90
18141;DHT22;9196;49.194;12.526;2023-10-31T11:14:20;11.10;99.90
18141;DHT22;9196;49.194;12.526;2023-10-31T11:16:51;11.00;99.90
18141;DHT22;9196;49.194;12.526;2023-10-31T11:19:18;10.90;99.90
18141;DHT22;9196;49.194;12.526;2023-10-31T11:21:57;10.90;99.90
18141;DHT22;9196;49.194;12.526;2023-10-31T11:24:26;10.90;99.90
18141;DHT22;9196;49.194;12.526;2023-10-31T11:27:00;10.90;99.90
18141;DHT22;9196;49.194;12.526;2023-10-31T11:29:27;10.80;99.90
18141;DHT22;9196;49.194;12.526;2023-10-31T11:31:55;10.70;99.90
18141;DHT22;9196;49.194;12.526;2023-10-31T11:34:23;10.90;99.90
18141;DHT22;9196;49.194;12.526;2023-10-31T11:36:50;10.90;99.90
18141;DHT22;9196;49.194;12.526;2023-10-31T11:39:19;10.90;99.90
18141;DHT22;9196;49.194;12.526;2023-10-31T11:41:55;10.80;99.90
18141;DHT22;9196;49.194;12.526;2023-10-31T11:44:23;10.90;99.90
18141;DHT22;9196;49.194;12.526;2023-10-31T11:46:52;10.90;99.90
18141;DHT22;9196;49.194;12.526;2023-10-31T11:49:47;10.90;99.90
18141;DHT22;9196;49.194;12.526;2023-10-31T11:52:15;10.70;99.90
18141;DHT22;9196;49.194;12.526;2023-10-31T11:54:42;10.60;99.90
18141;DHT22;9196;49.194;12.526;2023-10-31T11:57:10;10.50;99.90
18141;DHT22;9196;49.194;12.526;2023-10-31T11:59:37;10.50;99.90
18141;DHT22;9196;49.194;12.526;2023-10-31T12:02:13;10.50;99.90
18141;DHT22;9196;49.194;12.526;2023-10-31T12:04:40;10.50;99.90
18141;DHT22;9196;49.194;12.526;2023-10-31T12:07:08;10.60;99.90
18141;DHT22;9196;49.194;12.526;2023-10-31T12:09:45;10.50;99.90
18141;DHT22;9196;49.194;12.526;2023-10-31T12:12:14;10.60;99.90
18141;DHT22;9196;49.194;12.526;2023-10-31T12:14:41;10.60;99.90
18141;DHT22;9196;49.194;12.526;2023-10-31T12:17:08;10.80;99.90
18141;DHT22;9196;49.194;12.526;2023-10-31T12:19:35;10.70;99.90
18141;DHT22;9196;49.194;12.526;2023-10-31T12:22:12;10.80;99.90
18141;DHT22;9196;49.194;12.526;2023-10-31T12:24:39;10.90;99.90
18141;DHT22;9196;49.194;12.526;2023-10-31T12:27:06;11.00;99.90
18141;DHT22;9196;49.194;12.526;2023-10-31T12:29:34;10.90;99.90
18141;DHT22;9196;49.194;12.526;2023-10-31T12:32:01;10.80;99.90
18141;DHT22;9196;49.194;12.526;2023-10-31T12:34:29;10.80;99.90
18141;DHT22;9196;49.194;12.526;2023-10-31T12:36:56;10.80;99.90
18141;DHT22;9196;49.194;12.526;2023-10-31T12:39:25;10.80;99.90
18141;DHT22;9196;49.194;12.526;2023-10-31T12:41:53;10.80;99.90
18141;DHT22;9196;49.194;12.526;2023-10-31T12:44:24;10.80;99.90
18141;DHT22;9196;49.194;12.526;2023-10-31T12:46:53;10.90;99.90
18141;DHT22;9196;49.194;12.526;2023-10-31T12:49:21;10.80;99.90
18141;DHT22;9196;49.194;12.526;2023-10-31T12:51:56;10.80;99.90
18141;DHT22;9196;49.194;12.526;2023-10-31T12:54:28;10.90;99.90
18141;DHT22;9196;49.194;12.526;2023-10-31T12:56:59;10.90;99.90
18141;DHT22;9196;49.194;12.526;2023-10-31T12:59:26;10.80;99.90
18141;DHT22;9196;49.194;12.526;2023-10-31T13:01:54;10.90;99.90
18141;DHT22;9196;49.194;12.526;2023-10-31T13:04:24;10.90;99.90
18141;DHT22;9196;49.194;12.526;2023-10-31T13:06:56;10.80;99.90
18141;DHT22;9196;49.194;12.526;2023-10-31T13:09:23;10.90;99.90
18141;DHT22;9196;49.194;12.526;2023-10-31T13:11:49;10.90;99.90
18141;DHT22;9196;49.194;12.526;2023-10-31T13:14:16;10.90;99.90
18141;DHT22;9196;49.194;12.526;2023-10-31T13:16:43;10.90;99.90
18141;DHT22;9196;49.194;12.526;2023-10-31T13:19:12;10.90;99.90
18141;DHT22;9196;49.194;12.526;2023-10-31T13:21:38;10.90;99.90
18141;DHT22;9196;49.194;12.526;2023-10-31T13:24:06;10.80;99.90
18141;DHT22;9196;49.194;12.526;2023-10-31T13:26:33;10.70;99.90
18141;DHT22;9196;49.194;12.526;2023-10-31T13:29:01;10.80;99.90
18141;DHT22;9196;49.194;12.526;2023-10-31T13:31:28;10.80;99.90
18141;DHT22;9196;49.194;12.526;2023-10-31T13:33:54;10.80;99.90
18141;DHT22;9196;49.194;12.526;2023-10-31T13:36:22;10.70;99.90
18141;DHT22;9196;49.194;12.526;2023-10-31T13:38:49;10.70;99.90
18141;DHT22;9196;49.194;12.526;2023-10-31T13:41:16;10.70;99.90
18141;DHT22;9196;49.194;12.526;2023-10-31T13:43:43;10.70;99.90
18141;DHT22;9196;49.194;12.526;2023-10-31T13:46:10;10.70;99.90
18141;DHT22;9196;49.194;12.526;2023-10-31T13:48:37;10.70;99.90
18141;DHT22;9196;49.194;12.526;2023-10-31T13:51:04;10.60;99.90
18141;DHT22;9196;49.194;12.526;2023-10-31T13:53:32;10.60;99.90
18141;DHT22;9196;49.194;12.526;2023-10-31T13:55:59;10.60;99.90
18141;DHT22;9196;49.194;12.526;2023-10-31T13:58:26;10.60;99.90
18141;DHT22;9196;49.194;12.526;2023-10-31T14:00:53;10.60;99.90
18141;DHT22;9196;49.194;12.526;2023-10-31T14:03:19;10.60;99.90
18141;DHT22;9196;49.194;12.526;2023-10-31T14:05:47;10.60;99.90
18141;DHT22;9196;49.194;12.526;2023-10-31T14:08:13;10.70;99.90
18141;DHT22;9196;49.194;12.526;2023-10-31T14:10:41;10.70;99.90
18141;DHT22;9196;49.194;12.526;2023-10-31T14:13:11;10.80;99.90
18141;DHT22;9196;49.194;12.526;2023-10-31T14:15:38;10.80;99.90
18141;DHT22;9196;49.194;12.526;2023-10-31T14:18:04;10.80;99.90
18141;DHT22;9196;49.194;12.526;2023-10-31T14:20:33;10.80;99.90
18141;DHT22;9196;49.194;12.526;2023-10-31T14:23:00;10.80;99.90
18141;DHT22;9196;49.194;12.526;2023-10-31T14:25:27;10.80;99.90
18141;DHT22;9196;49.194;12.526;2023-10-31T14:27:55;10.80;99.90
18141;DHT22;9196;49.194;12.526;2023-10-31T14:30:22;10.80;99.90
18141;DHT22;9196;49.194;12.526;2023-10-31T14:32:48;10.90;99.90
18141;DHT22;9196;49.194;12.526;2023-10-31T14:35:15;10.90;99.90
18141;DHT22;9196;49.194;12.526;2023-10-31T14:37:42;10.90;99.90
18141;DHT22;9196;49.194;12.526;2023-10-31T14:40:10;10.90;99.90
18141;DHT22;9196;49.194;12.526;2023-10-31T14:42:37;10.90;99.90
18141;DHT22;9196;49.194;12.526;2023-10-31T14:45:06;10.90;99.90
18141;DHT22;9196;49.194;12.526;2023-10-31T14:47:33;10.90;99.90
18141;DHT22;9196;49.194;12.526;2023-10-31T14:50:00;10.90;99.90
18141;DHT22;9196;49.194;12.526;2023-10-31T14:52:27;11.00;99.90
18141;DHT22;9196;49.194;12.526;2023-10-31T14:54:53;11.00;99.90
18141;DHT22;9196;49.194;12.526;2023-10-31T14:57:20;11.00;99.90
18141;DHT22;9196;49.194;12.526;2023-10-31T14:59:47;10.90;99.90
18141;DHT22;9196;49.194;12.526;2023-10-31T15:02:15;10.90;99.90
18141;DHT22;9196;49.194;12.526;2023-10-31T15:04:42;10.90;99.90
18141;DHT22;9196;49.194;12.526;2023-10-31T15:07:09;11.00;99.90
18141;DHT22;9196;49.194;12.526;2023-10-31T15:09:35;11.00;99.90
18141;DHT22;9196;49.194;12.526;2023-10-31T15:12:02;10.90;99.90
18141;DHT22;9196;49.194;12.526;2023-10-31T15:14:29;10.90;99.90
18141;DHT22;9196;49.194;12.526;2023-10-31T15:16:56;10.90;99.90
18141;DHT22;9196;49.194;12.526;2023-10-31T15:19:24;10.90;99.90
18141;DHT22;9196;49.194;12.526;2023-10-31T15:21:51;10.80;99.90
18141;DHT22;9196;49.194;12.526;2023-10-31T15:24:20;10.80;99.90
18141;DHT22;9196;49.194;12.526;2023-10-31T15:26:46;10.80;99.90
18141;DHT22;9196;49.194;12.526;2023-10-31T15:29:13;10.80;99.90
18141;DHT22;9196;49.194;12.526;2023-10-31T15:31:43;10.80;99.90